Currently 74°F in Riverside (Presidential Park), California, USA
74°F
74°F / 47°F
3 mph W
0.00"
Friday, January 24, 2020 2:36 PM PST

Riverside (Presidential Park), California Weather Summary
Last 36 Hours

Temperature Winds Hourly Humidity Dewpoint
Time Report Norm Report Norm Max Gusts Precip. Rpt. Norm Rpt. Norm Pressure
1Fri 02:36 PM  73.8°F  69°F  3 mph W  5 mph  10 mph  0.00"  31%  33%  40°F  38°F  29.91"
2Fri 02:33 PM  74.1°F  69°F  5 mph S  5 mph  10 mph  ----  31%  33%  41°F  38°F  29.91"
Fri 02:00 PM  73.8°F  69°F  4 mph SW  5 mph  9 mph  0.00"  30%  34%  39°F  38°F  29.92"
Fri 01:00 PM  72.6°F  69°F  2 mph SW  4 mph  7 mph  0.00"  30%  34%  38°F  38°F  29.94"
Fri 12:00 PM  70.3°F  67°F  3 mph SW  4 mph  6 mph  0.00"  32%  37%  38°F  39°F  29.97"
Fri 11:00 AM  65.5°F  64°F  2 mph SW  3 mph  5 mph  0.00"  46%  42%  44°F  40°F  30.00"
Fri 10:00 AM  60.3°F  61°F  3 mph W  3 mph  5 mph  0.00"  58%  48%  45°F  40°F  30.01"
Fri 09:00 AM  53.5°F  57°F  calm  2 mph  3 mph  0.00"  71%  56%  44°F  41°F  30.01"
Fri 08:00 AM  49.5°F  51°F  1 mph E  2 mph  4 mph  0.00"  77%  64%  42°F  39°F  30.01"
Fri 07:00 AM  47.2°F  49°F  calm  2 mph  4 mph  0.00"  78%  65%  40°F  38°F  29.99"
3Fri 06:56 AM  47.1°F  49°F  calm  2 mph  none  ----  78%  65%  40°F  38°F  29.99"
Fri 06:00 AM  47.5°F  50°F  calm  1 mph  4 mph  0.00"  77%  65%  40°F  38°F  30.00"
Fri 05:00 AM  47.9°F  50°F  3 mph E  1 mph  4 mph  0.00"  77%  66%  41°F  38°F  29.99"
Fri 04:00 AM  49.0°F  50°F  1 mph SE  2 mph  4 mph  0.00"  76%  65%  41°F  38°F  29.99"
Fri 03:00 AM  49.9°F  51°F  1 mph SE  2 mph  2 mph  0.00"  75%  64%  42°F  39°F  29.99"
Fri 02:00 AM  51.7°F  51°F  calm  2 mph  3 mph  0.00"  73%  63%  43°F  39°F  30.01"
Fri 01:00 AM  53.7°F  52°F  1 mph SE  2 mph  3 mph  0.00"  71%  62%  44°F  39°F  30.01"
Fri 12:00 AM  55.0°F  53°F  calm  1 mph  4 mph  0.00"  69%  60%  45°F  39°F  30.02"
Thu 11:00 PM  54.8°F  54°F  2 mph NW  2 mph  5 mph  0.00"  70%  59%  45°F  39°F  30.03"
Thu 10:00 PM  54.5°F  55°F  1 mph E  2 mph  5 mph  0.00"  70%  56%  45°F  39°F  30.04"
Thu 09:00 PM  56.4°F  56°F  3 mph SE  2 mph  5 mph  0.00"  68%  54%  46°F  39°F  30.05"
Thu 08:00 PM  59.1°F  58°F  3 mph SE  2 mph  4 mph  0.00"  61%  51%  45°F  39°F  30.03"
Thu 07:00 PM  62.5°F  60°F  2 mph E  3 mph  5 mph  0.00"  51%  48%  43°F  40°F  30.02"
Thu 06:00 PM  67.7°F  63°F  4 mph SW  3 mph  9 mph  0.00"  42%  43%  43°F  39°F  30.01"
Thu 05:00 PM  72.1°F  66°F  4 mph W  4 mph  13 mph  0.00"  32%  38%  40°F  39°F  30.00"
Thu 04:00 PM  74.7°F  68°F  5 mph W  5 mph  14 mph  0.00"  27%  36%  37°F  39°F  29.99"
Thu 03:00 PM  75.7°F  68°F  6 mph NW  5 mph  12 mph  0.00"  25%  35%  36°F  38°F  29.99"
Thu 02:00 PM  76.4°F  68°F  3 mph SW  5 mph  10 mph  0.00"  25%  34%  37°F  38°F  29.99"
Thu 01:00 PM  78.6°F  68°F  1 mph E  4 mph  7 mph  0.00"  22%  35%  35°F  38°F  30.01"
Thu 12:00 PM  74.0°F  66°F  4 mph E  4 mph  10 mph  0.00"  30%  38%  39°F  39°F  30.06"
Thu 11:00 AM  71.5°F  64°F  5 mph E  3 mph  11 mph  0.00"  33%  43%  40°F  40°F  30.11"
Thu 10:00 AM  68.1°F  60°F  3 mph E  3 mph  7 mph  0.00"  42%  50%  43°F  41°F  30.12"
Thu 09:00 AM  61.0°F  56°F  4 mph SE  2 mph  6 mph  0.00"  64%  57%  48°F  41°F  30.13"
Thu 08:00 AM  52.2°F  51°F  calm  2 mph  4 mph  0.00"  79%  65%  45°F  39°F  30.12"
Thu 07:00 AM  50.4°F  49°F  3 mph E  2 mph  5 mph  0.00"  80%  66%  44°F  38°F  30.12"
Thu 06:00 AM  49.8°F  49°F  3 mph E  1 mph  8 mph  0.00"  84%  66%  45°F  38°F  30.11"
Thu 05:00 AM  49.2°F  49°F  1 mph SE  1 mph  8 mph  0.00"  88%  66%  46°F  38°F  30.10"
Thu 04:00 AM  48.2°F  50°F  1 mph W  2 mph  5 mph  0.00"  88%  66%  45°F  38°F  30.10"
Thu 03:00 AM  47.3°F  50°F  2 mph SE  2 mph  4 mph  0.00"  88%  65%  44°F  38°F  30.11"

  1. Current weather data. No green row appears if the current weather data is also the high or low for the current day.
  2. High temperature for the current day.
  3. Low temperature for the current day.

The Riverside (Presidential Park), California weather pages are a service of WeatherCurrents.
Copyright ©2020  WeatherCurrents. All rights reserved. - Submit questions and comments - Privacy Policy

This page automatically refreshes every 10 minutes.